AAL624 KSAN-KPHX
Flight info
| Callsign | AAL624 |
|---|---|
| Flight time | 0h 46m |
| Altitude | 33000 |
| Route | ZZOOO4 HOGGZ HYDRR1 |
| Aircraft | A320/M-SDE3FGHIRWY/LB1 |
Departure
| Time | 2026-05-05 05:10 |
|---|---|
| Airport | San Diego International Airport (KSAN) |
Arrival
| Time | 2026-05-05 05:57 |
|---|---|
| Airport | Phoenix Sky Harbor International Airport (KPHX) |
| Time | Latitude | Longitude | Altitude | Speed | Heading |
|---|---|---|---|---|---|
| 2026-05-05 04:33 | 32.73375 | -117.20350 | 25 ft | 0 kts | 269° |
| 2026-05-05 04:58 | 32.73375 | -117.20335 | 29 ft | 7 kts | 269° |
| 2026-05-05 04:58 | 32.73374 | -117.20294 | 27 ft | 2 kts | 289° |
| 2026-05-05 04:58 | 32.73369 | -117.20282 | 26 ft | 2 kts | 327° |
| 2026-05-05 04:58 | 32.73359 | -117.20275 | 29 ft | 2 kts | 343° |
| 2026-05-05 04:59 | 32.73348 | -117.20272 | 28 ft | 2 kts | 346° |
| 2026-05-05 05:03 | 32.73371 | -117.20277 | 28 ft | 8 kts | 354° |
| 2026-05-05 05:03 | 32.73460 | -117.20255 | 25 ft | 14 kts | 17° |
| 2026-05-05 05:04 | 32.73535 | -117.20217 | 26 ft | 10 kts | 47° |
| 2026-05-05 05:04 | 32.73538 | -117.20145 | 26 ft | 8 kts | 104° |
| 2026-05-05 05:04 | 32.73523 | -117.20082 | 27 ft | 8 kts | 105° |
| 2026-05-05 05:04 | 32.73510 | -117.20027 | 26 ft | 6 kts | 109° |
| 2026-05-05 05:05 | 32.73495 | -117.19966 | 27 ft | 10 kts | 105° |
| 2026-05-05 05:05 | 32.73472 | -117.19866 | 28 ft | 15 kts | 107° |
| 2026-05-05 05:05 | 32.73436 | -117.19723 | 27 ft | 20 kts | 107° |
| 2026-05-05 05:05 | 32.73396 | -117.19557 | 27 ft | 21 kts | 107° |
| 2026-05-05 05:06 | 32.73353 | -117.19385 | 27 ft | 23 kts | 106° |
| 2026-05-05 05:06 | 32.73307 | -117.19193 | 25 ft | 25 kts | 107° |
| 2026-05-05 05:06 | 32.73259 | -117.18994 | 28 ft | 26 kts | 105° |
| 2026-05-05 05:06 | 32.73207 | -117.18787 | 27 ft | 26 kts | 106° |
| 2026-05-05 05:07 | 32.73158 | -117.18577 | 29 ft | 28 kts | 106° |
| 2026-05-05 05:07 | 32.73120 | -117.18422 | 24 ft | 17 kts | 107° |
| 2026-05-05 05:07 | 32.73090 | -117.18295 | 24 ft | 15 kts | 106° |
| 2026-05-05 05:07 | 32.73058 | -117.18163 | 21 ft | 20 kts | 106° |
| 2026-05-05 05:08 | 32.73011 | -117.17971 | 22 ft | 27 kts | 106° |
| 2026-05-05 05:08 | 32.72965 | -117.17784 | 18 ft | 18 kts | 105° |
| 2026-05-05 05:08 | 32.72950 | -117.17679 | 20 ft | 0 kts | 72° |
| 2026-05-05 05:09 | 32.72952 | -117.17674 | 20 ft | 3 kts | 72° |
| 2026-05-05 05:09 | 32.72969 | -117.17615 | 22 ft | 13 kts | 68° |
| 2026-05-05 05:09 | 32.73024 | -117.17607 | 24 ft | 7 kts | 264° |
| 2026-05-05 05:09 | 32.73027 | -117.17636 | 21 ft | 0 kts | 292° |
| 2026-05-05 05:10 | 32.73048 | -117.17702 | 21 ft | 38 kts | 289° |
| 2026-05-05 05:10 | 32.73190 | -117.18289 | 27 ft | 106 kts | 286° |
| 2026-05-05 05:10 | 32.73433 | -117.19359 | 44 ft | 157 kts | 277° |
| 2026-05-05 05:10 | 32.73703 | -117.20608 | 663 ft | 156 kts | 285° |
| 2026-05-05 05:11 | 32.74006 | -117.21842 | 1361 ft | 158 kts | 284° |
| 2026-05-05 05:11 | 32.74333 | -117.23172 | 1734 ft | 179 kts | 284° |
| 2026-05-05 05:11 | 32.74704 | -117.24682 | 2036 ft | 202 kts | 284° |
| 2026-05-05 05:11 | 32.75120 | -117.26384 | 2400 ft | 225 kts | 284° |
| 2026-05-05 05:12 | 32.75564 | -117.28202 | 3170 ft | 232 kts | 284° |
| 2026-05-05 05:12 | 32.76017 | -117.30048 | 3997 ft | 234 kts | 284° |
| 2026-05-05 05:12 | 32.76461 | -117.31921 | 4900 ft | 236 kts | 280° |
| 2026-05-05 05:12 | 32.76318 | -117.33843 | 5690 ft | 239 kts | 244° |
| 2026-05-05 05:13 | 32.75182 | -117.35263 | 6507 ft | 245 kts | 207° |
| 2026-05-05 05:13 | 32.73495 | -117.35574 | 7285 ft | 254 kts | 171° |
| 2026-05-05 05:13 | 32.71878 | -117.34675 | 8080 ft | 264 kts | 146° |
| 2026-05-05 05:13 | 32.70495 | -117.33209 | 8903 ft | 269 kts | 137° |
| 2026-05-05 05:14 | 32.69198 | -117.31582 | 9712 ft | 274 kts | 136° |
| 2026-05-05 05:14 | 32.67883 | -117.29927 | 10452 ft | 277 kts | 137° |
| 2026-05-05 05:14 | 32.66519 | -117.28294 | 11184 ft | 280 kts | 140° |
| 2026-05-05 05:14 | 32.65089 | -117.26675 | 11947 ft | 282 kts | 141° |
| 2026-05-05 05:15 | 32.63822 | -117.24863 | 12677 ft | 290 kts | 124° |
| 2026-05-05 05:15 | 32.63007 | -117.22611 | 13175 ft | 310 kts | 107° |
| 2026-05-05 05:15 | 32.62685 | -117.19977 | 13370 ft | 335 kts | 99° |
| 2026-05-05 05:15 | 32.62431 | -117.17137 | 13554 ft | 358 kts | 98° |
| 2026-05-05 05:16 | 32.62168 | -117.14136 | 13973 ft | 371 kts | 98° |
| 2026-05-05 05:16 | 32.62125 | -117.11048 | 14537 ft | 380 kts | 86° |
| 2026-05-05 05:16 | 32.62684 | -117.07959 | 15128 ft | 387 kts | 72° |
| 2026-05-05 05:16 | 32.63662 | -117.04960 | 15721 ft | 392 kts | 70° |
| 2026-05-05 05:17 | 32.64663 | -117.01927 | 16314 ft | 397 kts | 70° |
| 2026-05-05 05:17 | 32.65663 | -116.98865 | 16915 ft | 401 kts | 71° |
| 2026-05-05 05:17 | 32.66433 | -116.95675 | 17499 ft | 402 kts | 83° |
| 2026-05-05 05:17 | 32.66722 | -116.92336 | 18103 ft | 402 kts | 92° |
| 2026-05-05 05:18 | 32.66793 | -116.89009 | 18655 ft | 406 kts | 92° |
| 2026-05-05 05:18 | 32.66868 | -116.85651 | 19155 ft | 409 kts | 93° |
| 2026-05-05 05:18 | 32.66947 | -116.82253 | 19671 ft | 414 kts | 93° |
| 2026-05-05 05:18 | 32.67024 | -116.78819 | 20176 ft | 418 kts | 93° |
| 2026-05-05 05:19 | 32.67101 | -116.75352 | 20699 ft | 422 kts | 93° |
| 2026-05-05 05:19 | 32.67135 | -116.71864 | 21193 ft | 425 kts | 95° |
| 2026-05-05 05:19 | 32.67104 | -116.68339 | 21696 ft | 429 kts | 96° |
| 2026-05-05 05:19 | 32.67029 | -116.64784 | 22202 ft | 433 kts | 97° |
| 2026-05-05 05:20 | 32.66936 | -116.61201 | 22703 ft | 437 kts | 97° |
| 2026-05-05 05:20 | 32.66843 | -116.57579 | 23162 ft | 441 kts | 97° |
| 2026-05-05 05:20 | 32.66761 | -116.53935 | 23584 ft | 444 kts | 97° |
| 2026-05-05 05:20 | 32.66696 | -116.50563 | 23944 ft | 449 kts | 97° |
| 2026-05-05 05:21 | 32.66632 | -116.46846 | 24303 ft | 453 kts | 97° |
| 2026-05-05 05:21 | 32.66590 | -116.43094 | 24745 ft | 456 kts | 95° |
| 2026-05-05 05:21 | 32.66854 | -116.39313 | 25163 ft | 463 kts | 89° |
| 2026-05-05 05:21 | 32.67208 | -116.35499 | 25523 ft | 467 kts | 90° |
| 2026-05-05 05:22 | 32.67566 | -116.31648 | 25850 ft | 472 kts | 90° |
| 2026-05-05 05:22 | 32.67923 | -116.27763 | 26174 ft | 476 kts | 90° |
| 2026-05-05 05:22 | 32.68275 | -116.23832 | 26484 ft | 481 kts | 91° |
| 2026-05-05 05:22 | 32.68626 | -116.19870 | 26805 ft | 486 kts | 91° |
| 2026-05-05 05:23 | 32.68983 | -116.15860 | 27102 ft | 491 kts | 91° |
| 2026-05-05 05:23 | 32.69343 | -116.11813 | 27397 ft | 495 kts | 91° |
| 2026-05-05 05:23 | 32.69705 | -116.07736 | 27665 ft | 499 kts | 91° |
| 2026-05-05 05:23 | 32.70078 | -116.03563 | 27941 ft | 504 kts | 92° |
| 2026-05-05 05:24 | 32.70451 | -115.99416 | 28190 ft | 507 kts | 92° |
| 2026-05-05 05:24 | 32.70832 | -115.95231 | 28458 ft | 512 kts | 91° |
| 2026-05-05 05:24 | 32.71221 | -115.91015 | 28737 ft | 516 kts | 91° |
| 2026-05-05 05:24 | 32.71606 | -115.86850 | 28998 ft | 519 kts | 92° |
| 2026-05-05 05:25 | 32.72001 | -115.82568 | 29270 ft | 523 kts | 92° |
| 2026-05-05 05:25 | 32.72401 | -115.78264 | 29533 ft | 527 kts | 92° |
| 2026-05-05 05:25 | 32.72803 | -115.73927 | 29802 ft | 530 kts | 92° |
| 2026-05-05 05:25 | 32.73206 | -115.69559 | 30055 ft | 534 kts | 92° |
| 2026-05-05 05:26 | 32.73610 | -115.65164 | 30278 ft | 537 kts | 92° |
| 2026-05-05 05:26 | 32.74013 | -115.60742 | 30530 ft | 539 kts | 92° |
| 2026-05-05 05:26 | 32.74409 | -115.56313 | 30761 ft | 540 kts | 92° |
| 2026-05-05 05:26 | 32.74799 | -115.51866 | 30929 ft | 541 kts | 92° |
| 2026-05-05 05:27 | 32.75114 | -115.47475 | 30970 ft | 525 kts | 95° |
| 2026-05-05 05:27 | 32.75306 | -115.43229 | 30966 ft | 507 kts | 97° |
| 2026-05-05 05:27 | 32.75410 | -115.34871 | 30963 ft | 510 kts | 99° |
| 2026-05-05 05:28 | 32.75444 | -115.26416 | 30965 ft | 513 kts | 98° |
| 2026-05-05 05:28 | 32.75601 | -115.17914 | 30967 ft | 515 kts | 97° |
| 2026-05-05 05:29 | 32.75832 | -115.09412 | 30961 ft | 515 kts | 97° |
| 2026-05-05 05:29 | 32.76049 | -115.00924 | 30951 ft | 514 kts | 97° |
| 2026-05-05 05:30 | 32.76222 | -114.92449 | 30940 ft | 513 kts | 97° |
| 2026-05-05 05:30 | 32.76374 | -114.83989 | 30940 ft | 512 kts | 97° |
| 2026-05-05 05:31 | 32.76532 | -114.75526 | 30941 ft | 512 kts | 97° |
| 2026-05-05 05:31 | 32.76695 | -114.67071 | 30939 ft | 512 kts | 97° |
| 2026-05-05 05:32 | 32.76847 | -114.58560 | 30946 ft | 511 kts | 97° |
| 2026-05-05 05:32 | 32.76973 | -114.50127 | 30928 ft | 511 kts | 98° |
| 2026-05-05 05:33 | 32.77071 | -114.41608 | 30422 ft | 521 kts | 98° |
| 2026-05-05 05:33 | 32.77122 | -114.37300 | 29716 ft | 522 kts | 97° |
| 2026-05-05 05:33 | 32.77179 | -114.33008 | 29086 ft | 517 kts | 97° |
| 2026-05-05 05:34 | 32.77238 | -114.28752 | 28361 ft | 514 kts | 97° |
| 2026-05-05 05:34 | 32.77290 | -114.24470 | 27349 ft | 519 kts | 97° |
| 2026-05-05 05:34 | 32.77341 | -114.20200 | 26669 ft | 515 kts | 97° |
| 2026-05-05 05:34 | 32.77395 | -114.15977 | 26202 ft | 500 kts | 97° |
| 2026-05-05 05:35 | 32.77459 | -114.11948 | 25696 ft | 480 kts | 98° |
| 2026-05-05 05:35 | 32.77517 | -114.08024 | 25131 ft | 467 kts | 97° |
| 2026-05-05 05:35 | 32.77822 | -114.04227 | 24924 ft | 457 kts | 91° |
| 2026-05-05 05:35 | 32.78226 | -114.00510 | 24908 ft | 452 kts | 91° |
| 2026-05-05 05:36 | 32.78626 | -113.96798 | 24907 ft | 452 kts | 91° |
| 2026-05-05 05:36 | 32.79023 | -113.93099 | 24908 ft | 451 kts | 91° |
| 2026-05-05 05:36 | 32.79420 | -113.89403 | 24907 ft | 451 kts | 91° |
| 2026-05-05 05:36 | 32.79820 | -113.85705 | 24905 ft | 451 kts | 91° |
| 2026-05-05 05:37 | 32.80222 | -113.82012 | 24905 ft | 451 kts | 91° |
| 2026-05-05 05:37 | 32.80625 | -113.78313 | 24904 ft | 451 kts | 91° |
| 2026-05-05 05:37 | 32.81042 | -113.74608 | 24905 ft | 453 kts | 88° |
| 2026-05-05 05:37 | 32.81830 | -113.70939 | 24903 ft | 464 kts | 76° |
| 2026-05-05 05:38 | 32.83177 | -113.67423 | 24824 ft | 472 kts | 64° |
| 2026-05-05 05:38 | 32.85058 | -113.64218 | 24491 ft | 473 kts | 50° |
| 2026-05-05 05:38 | 32.87252 | -113.61311 | 24241 ft | 471 kts | 49° |
| 2026-05-05 05:38 | 32.89465 | -113.58373 | 23954 ft | 469 kts | 49° |
| 2026-05-05 05:39 | 32.91625 | -113.55486 | 23684 ft | 466 kts | 50° |
| 2026-05-05 05:39 | 32.93764 | -113.52604 | 23400 ft | 464 kts | 50° |
| 2026-05-05 05:39 | 32.95777 | -113.49877 | 23132 ft | 461 kts | 50° |
| 2026-05-05 05:39 | 32.97879 | -113.47020 | 22831 ft | 457 kts | 50° |
| 2026-05-05 05:40 | 32.99962 | -113.44191 | 22451 ft | 452 kts | 50° |
| 2026-05-05 05:40 | 33.02027 | -113.41394 | 22082 ft | 446 kts | 49° |
| 2026-05-05 05:40 | 33.04067 | -113.38635 | 21721 ft | 441 kts | 49° |
| 2026-05-05 05:40 | 33.06079 | -113.35913 | 21362 ft | 436 kts | 49° |
| 2026-05-05 05:41 | 33.08075 | -113.33218 | 21015 ft | 430 kts | 49° |
| 2026-05-05 05:41 | 33.09378 | -113.31459 | 20718 ft | 425 kts | 49° |
| 2026-05-05 05:41 | 33.11967 | -113.27960 | 19997 ft | 416 kts | 48° |
| 2026-05-05 05:41 | 33.13226 | -113.26256 | 19668 ft | 411 kts | 48° |
| 2026-05-05 05:42 | 33.15097 | -113.23721 | 19091 ft | 402 kts | 48° |
| 2026-05-05 05:42 | 33.16928 | -113.21240 | 18578 ft | 396 kts | 48° |
| 2026-05-05 05:42 | 33.18736 | -113.18792 | 18322 ft | 389 kts | 47° |
| 2026-05-05 05:42 | 33.20513 | -113.16384 | 18016 ft | 384 kts | 47° |
| 2026-05-05 05:43 | 33.22271 | -113.13999 | 17558 ft | 383 kts | 48° |
| 2026-05-05 05:43 | 33.24036 | -113.11599 | 17049 ft | 384 kts | 48° |
| 2026-05-05 05:43 | 33.25646 | -113.09088 | 16694 ft | 379 kts | 59° |
| 2026-05-05 05:43 | 33.26791 | -113.06267 | 16183 ft | 374 kts | 72° |
| 2026-05-05 05:44 | 33.27430 | -113.03228 | 15700 ft | 370 kts | 85° |
| 2026-05-05 05:44 | 33.27593 | -113.00238 | 15406 ft | 363 kts | 92° |
| 2026-05-05 05:44 | 33.27667 | -112.97233 | 15044 ft | 359 kts | 92° |
| 2026-05-05 05:44 | 33.27745 | -112.94255 | 14483 ft | 352 kts | 92° |
| 2026-05-05 05:45 | 33.27821 | -112.91347 | 13871 ft | 348 kts | 92° |
| 2026-05-05 05:45 | 33.27896 | -112.88476 | 13260 ft | 344 kts | 92° |
| 2026-05-05 05:45 | 33.27969 | -112.85642 | 12788 ft | 336 kts | 92° |
| 2026-05-05 05:45 | 33.28131 | -112.82901 | 12426 ft | 328 kts | 83° |
| 2026-05-05 05:46 | 33.28755 | -112.80287 | 12012 ft | 328 kts | 69° |
| 2026-05-05 05:46 | 33.29685 | -112.77814 | 11650 ft | 326 kts | 68° |
| 2026-05-05 05:46 | 33.30609 | -112.75353 | 11337 ft | 322 kts | 68° |
| 2026-05-05 05:46 | 33.31516 | -112.72930 | 11142 ft | 315 kts | 68° |
| 2026-05-05 05:47 | 33.32401 | -112.70572 | 11010 ft | 306 kts | 68° |
| 2026-05-05 05:47 | 33.33256 | -112.68291 | 10875 ft | 298 kts | 68° |
| 2026-05-05 05:47 | 33.34113 | -112.66028 | 10515 ft | 299 kts | 68° |
| 2026-05-05 05:47 | 33.34969 | -112.63786 | 10209 ft | 296 kts | 68° |
| 2026-05-05 05:48 | 33.35826 | -112.61547 | 9836 ft | 292 kts | 68° |
| 2026-05-05 05:48 | 33.36667 | -112.59352 | 9295 ft | 288 kts | 68° |
| 2026-05-05 05:48 | 33.37496 | -112.57178 | 8891 ft | 286 kts | 68° |
| 2026-05-05 05:48 | 33.38313 | -112.55033 | 8510 ft | 281 kts | 68° |
| 2026-05-05 05:49 | 33.39114 | -112.52934 | 8251 ft | 269 kts | 68° |
| 2026-05-05 05:49 | 33.39871 | -112.50949 | 8159 ft | 259 kts | 68° |
| 2026-05-05 05:49 | 33.40605 | -112.48997 | 7955 ft | 258 kts | 69° |
| 2026-05-05 05:49 | 33.41308 | -112.47030 | 7650 ft | 255 kts | 70° |
| 2026-05-05 05:50 | 33.41986 | -112.45088 | 7359 ft | 252 kts | 70° |
| 2026-05-05 05:50 | 33.42626 | -112.43139 | 7063 ft | 248 kts | 78° |
| 2026-05-05 05:50 | 33.42865 | -112.41131 | 6791 ft | 241 kts | 94° |
| 2026-05-05 05:50 | 33.42853 | -112.39137 | 6517 ft | 239 kts | 94° |
| 2026-05-05 05:51 | 33.42853 | -112.37149 | 6236 ft | 237 kts | 94° |
| 2026-05-05 05:51 | 33.42857 | -112.35184 | 5955 ft | 236 kts | 93° |
| 2026-05-05 05:51 | 33.42862 | -112.33217 | 5677 ft | 236 kts | 93° |
| 2026-05-05 05:51 | 33.42866 | -112.31250 | 5403 ft | 236 kts | 93° |
| 2026-05-05 05:52 | 33.42867 | -112.29260 | 5131 ft | 235 kts | 93° |
| 2026-05-05 05:52 | 33.42868 | -112.27337 | 4852 ft | 231 kts | 93° |
| 2026-05-05 05:52 | 33.42871 | -112.25436 | 4584 ft | 220 kts | 93° |
| 2026-05-05 05:52 | 33.42874 | -112.23648 | 4326 ft | 211 kts | 93° |
| 2026-05-05 05:53 | 33.42876 | -112.21904 | 4090 ft | 208 kts | 92° |
| 2026-05-05 05:53 | 33.42878 | -112.20178 | 3869 ft | 206 kts | 92° |
| 2026-05-05 05:53 | 33.42880 | -112.18476 | 3652 ft | 201 kts | 92° |
| 2026-05-05 05:53 | 33.42882 | -112.16847 | 3403 ft | 191 kts | 92° |
| 2026-05-05 05:54 | 33.42883 | -112.15297 | 3169 ft | 181 kts | 92° |
| 2026-05-05 05:54 | 33.42884 | -112.13835 | 2943 ft | 171 kts | 91° |
| 2026-05-05 05:54 | 33.42884 | -112.12358 | 2730 ft | 182 kts | 91° |
| 2026-05-05 05:54 | 33.42885 | -112.10902 | 2486 ft | 169 kts | 91° |
| 2026-05-05 05:55 | 33.42886 | -112.09553 | 2290 ft | 157 kts | 91° |
| 2026-05-05 05:55 | 33.42886 | -112.08270 | 2085 ft | 152 kts | 90° |
| 2026-05-05 05:55 | 33.42886 | -112.07193 | 1914 ft | 151 kts | 91° |
| 2026-05-05 05:55 | 33.42885 | -112.05937 | 1717 ft | 151 kts | 90° |
| 2026-05-05 05:56 | 33.42883 | -112.04673 | 1511 ft | 151 kts | 90° |
| 2026-05-05 05:56 | 33.42883 | -112.03411 | 1290 ft | 152 kts | 90° |
| 2026-05-05 05:56 | 33.42889 | -112.02160 | 1132 ft | 144 kts | 96° |
| 2026-05-05 05:56 | 33.42885 | -112.01135 | 1131 ft | 100 kts | 90° |
| 2026-05-05 05:57 | 33.42883 | -112.00514 | 1130 ft | 51 kts | 90° |
| 2026-05-05 05:57 | 33.42887 | -112.00191 | 1136 ft | 27 kts | 78° |
| 2026-05-05 05:57 | 33.42917 | -112.00161 | 1135 ft | 2 kts | 345° |
| 2026-05-05 05:57 | 33.42952 | -112.00172 | 1133 ft | 10 kts | 346° |
| 2026-05-05 05:58 | 33.42994 | -112.00122 | 1132 ft | 9 kts | 79° |
| 2026-05-05 05:58 | 33.42995 | -112.00025 | 1134 ft | 14 kts | 90° |
| 2026-05-05 05:58 | 33.43071 | -111.99968 | 1137 ft | 17 kts | 352° |
| 2026-05-05 05:58 | 33.43195 | -111.99974 | 1135 ft | 14 kts | 323° |
| 2026-05-05 05:59 | 33.43232 | -112.00068 | 1136 ft | 12 kts | 321° |
| 2026-05-05 05:59 | 33.43282 | -112.00121 | 1133 ft | 9 kts | 283° |
| 2026-05-05 05:59 | 33.43284 | -112.00194 | 1133 ft | 9 kts | 270° |
| 2026-05-05 05:59 | 33.43285 | -112.00283 | 1131 ft | 12 kts | 271° |
| 2026-05-05 06:00 | 33.43300 | -112.00371 | 1135 ft | 10 kts | 314° |
| 2026-05-05 06:00 | 33.43380 | -112.00383 | 1133 ft | 14 kts | 2° |
| 2026-05-05 06:00 | 33.43485 | -112.00384 | 1131 ft | 17 kts | 359° |
| 2026-05-05 06:00 | 33.43615 | -112.00383 | 1132 ft | 20 kts | 2° |
| 2026-05-05 06:01 | 33.43714 | -112.00336 | 1132 ft | 17 kts | 82° |
| 2026-05-05 06:01 | 33.43737 | -112.00298 | 1133 ft | 3 kts | 351° |
| 2026-05-05 06:01 | 33.43771 | -112.00303 | 1132 ft | 7 kts | 358° |
| 2026-05-05 06:01 | 33.43845 | -112.00303 | 1134 ft | 14 kts | 0° |
| 2026-05-05 06:02 | 33.43902 | -112.00251 | 1131 ft | 12 kts | 83° |
| 2026-05-05 06:02 | 33.43879 | -112.00203 | 1131 ft | 8 kts | 188° |
| 2026-05-05 06:02 | 33.43830 | -112.00199 | 1134 ft | 3 kts | 161° |
| 2026-05-05 06:02 | 33.43826 | -112.00199 | 1133 ft | 0 kts | 179° |
| 2026-05-05 06:03 | 33.43852 | -112.00200 | 1133 ft | 0 kts | 179° |
| 2026-05-05 06:03 | 33.43835 | -112.00200 | 1133 ft | 5 kts | 178° |
| 2026-05-05 06:03 | 33.43828 | -112.00200 | 1133 ft | 0 kts | 177° |